sensor_id;sensor_type;location;lat;lon;timestamp;P1;durP1;ratioP1;P2;durP2;ratioP2
41829;SDS011;38614;43.472;23.936;2024-03-02T00:02:27;54.08;;;21.92;;
41829;SDS011;38614;43.472;23.936;2024-03-02T00:05:18;48.15;;;18.40;;
41829;SDS011;38614;43.472;23.936;2024-03-02T00:08:06;55.53;;;20.25;;
41829;SDS011;38614;43.472;23.936;2024-03-02T00:10:58;47.70;;;20.35;;
41829;SDS011;38614;43.472;23.936;2024-03-02T00:13:47;45.90;;;17.27;;
41829;SDS011;38614;43.472;23.936;2024-03-02T00:16:35;49.78;;;17.83;;
41829;SDS011;38614;43.472;23.936;2024-03-02T00:19:23;47.47;;;18.23;;
41829;SDS011;38614;43.472;23.936;2024-03-02T00:22:11;38.90;;;17.23;;
41829;SDS011;38614;43.472;23.936;2024-03-02T00:24:58;48.53;;;18.55;;
41829;SDS011;38614;43.472;23.936;2024-03-02T00:27:50;40.05;;;16.40;;
41829;SDS011;38614;43.472;23.936;2024-03-02T00:30:49;39.17;;;18.95;;
41829;SDS011;38614;43.472;23.936;2024-03-02T00:36:31;37.87;;;17.90;;
41829;SDS011;38614;43.472;23.936;2024-03-02T00:39:19;52.90;;;18.13;;
41829;SDS011;38614;43.472;23.936;2024-03-02T00:42:06;43.67;;;18.27;;
41829;SDS011;38614;43.472;23.936;2024-03-02T00:44:55;35.95;;;17.20;;
41829;SDS011;38614;43.472;23.936;2024-03-02T00:47:43;41.85;;;18.67;;
41829;SDS011;38614;43.472;23.936;2024-03-02T00:50:31;42.00;;;18.33;;
41829;SDS011;38614;43.472;23.936;2024-03-02T00:53:21;40.55;;;14.18;;
41829;SDS011;38614;43.472;23.936;2024-03-02T00:56:13;33.63;;;14.40;;
41829;SDS011;38614;43.472;23.936;2024-03-02T00:59:01;34.25;;;14.13;;
41829;SDS011;38614;43.472;23.936;2024-03-02T01:01:49;39.33;;;15.05;;
41829;SDS011;38614;43.472;23.936;2024-03-02T01:04:37;33.00;;;12.85;;
41829;SDS011;38614;43.472;23.936;2024-03-02T01:07:25;23.40;;;10.93;;
41829;SDS011;38614;43.472;23.936;2024-03-02T01:10:13;28.83;;;13.27;;
41829;SDS011;38614;43.472;23.936;2024-03-02T01:13:00;28.20;;;12.82;;
41829;SDS011;38614;43.472;23.936;2024-03-02T01:15:48;37.17;;;13.55;;
41829;SDS011;38614;43.472;23.936;2024-03-02T01:18:37;34.78;;;13.20;;
41829;SDS011;38614;43.472;23.936;2024-03-02T01:21:25;42.88;;;16.98;;
41829;SDS011;38614;43.472;23.936;2024-03-02T01:24:13;36.17;;;17.00;;
41829;SDS011;38614;43.472;23.936;2024-03-02T01:27:00;31.40;;;13.27;;
41829;SDS011;38614;43.472;23.936;2024-03-02T01:29:49;37.55;;;14.27;;
41829;SDS011;38614;43.472;23.936;2024-03-02T01:32:40;33.50;;;14.63;;
41829;SDS011;38614;43.472;23.936;2024-03-02T01:35:28;34.50;;;15.18;;
41829;SDS011;38614;43.472;23.936;2024-03-02T01:38:15;44.60;;;18.05;;
41829;SDS011;38614;43.472;23.936;2024-03-02T01:41:03;34.88;;;17.77;;
41829;SDS011;38614;43.472;23.936;2024-03-02T01:43:51;43.17;;;16.48;;
41829;SDS011;38614;43.472;23.936;2024-03-02T01:46:38;41.45;;;17.23;;
41829;SDS011;38614;43.472;23.936;2024-03-02T01:49:27;38.67;;;14.43;;
41829;SDS011;38614;43.472;23.936;2024-03-02T01:52:16;38.60;;;15.80;;
41829;SDS011;38614;43.472;23.936;2024-03-02T01:55:03;43.50;;;17.13;;
41829;SDS011;38614;43.472;23.936;2024-03-02T01:57:51;34.22;;;15.77;;
41829;SDS011;38614;43.472;23.936;2024-03-02T02:00:39;39.33;;;15.85;;
41829;SDS011;38614;43.472;23.936;2024-03-02T02:03:27;39.33;;;14.85;;
41829;SDS011;38614;43.472;23.936;2024-03-02T02:06:15;38.47;;;13.85;;
41829;SDS011;38614;43.472;23.936;2024-03-02T02:09:03;50.50;;;12.63;;
41829;SDS011;38614;43.472;23.936;2024-03-02T02:11:51;48.08;;;14.65;;
41829;SDS011;38614;43.472;23.936;2024-03-02T02:14:39;36.78;;;13.23;;
41829;SDS011;38614;43.472;23.936;2024-03-02T02:17:34;41.80;;;14.20;;
41829;SDS011;38614;43.472;23.936;2024-03-02T02:20:22;25.45;;;12.88;;
41829;SDS011;38614;43.472;23.936;2024-03-02T02:23:10;44.60;;;15.55;;
41829;SDS011;38614;43.472;23.936;2024-03-02T02:25:57;38.30;;;14.52;;
41829;SDS011;38614;43.472;23.936;2024-03-02T02:28:46;38.80;;;15.50;;
41829;SDS011;38614;43.472;23.936;2024-03-02T02:31:40;39.38;;;17.05;;
41829;SDS011;38614;43.472;23.936;2024-03-02T02:34:28;38.95;;;14.73;;
41829;SDS011;38614;43.472;23.936;2024-03-02T02:37:16;37.88;;;14.82;;
41829;SDS011;38614;43.472;23.936;2024-03-02T02:40:05;38.20;;;14.38;;
41829;SDS011;38614;43.472;23.936;2024-03-02T02:42:53;39.00;;;15.82;;
41829;SDS011;38614;43.472;23.936;2024-03-02T02:45:40;38.35;;;15.60;;
41829;SDS011;38614;43.472;23.936;2024-03-02T02:48:28;39.05;;;14.80;;
41829;SDS011;38614;43.472;23.936;2024-03-02T02:51:16;42.08;;;15.93;;
41829;SDS011;38614;43.472;23.936;2024-03-02T02:54:05;40.80;;;14.98;;
41829;SDS011;38614;43.472;23.936;2024-03-02T02:56:53;37.13;;;13.35;;
41829;SDS011;38614;43.472;23.936;2024-03-02T02:59:41;43.55;;;16.67;;
41829;SDS011;38614;43.472;23.936;2024-03-02T03:02:29;51.03;;;16.15;;
41829;SDS011;38614;43.472;23.936;2024-03-02T03:05:17;38.13;;;14.63;;
41829;SDS011;38614;43.472;23.936;2024-03-02T03:08:05;43.47;;;15.63;;
41829;SDS011;38614;43.472;23.936;2024-03-02T03:10:53;39.17;;;15.02;;
41829;SDS011;38614;43.472;23.936;2024-03-02T03:13:41;40.17;;;16.20;;
41829;SDS011;38614;43.472;23.936;2024-03-02T03:16:28;38.42;;;14.80;;
41829;SDS011;38614;43.472;23.936;2024-03-02T03:19:16;41.75;;;14.35;;
41829;SDS011;38614;43.472;23.936;2024-03-02T03:22:03;27.95;;;15.10;;
41829;SDS011;38614;43.472;23.936;2024-03-02T03:24:52;31.05;;;12.80;;
41829;SDS011;38614;43.472;23.936;2024-03-02T03:27:40;34.28;;;12.27;;
41829;SDS011;38614;43.472;23.936;2024-03-02T03:30:29;25.98;;;10.77;;
41829;SDS011;38614;43.472;23.936;2024-03-02T03:33:16;37.83;;;13.18;;
41829;SDS011;38614;43.472;23.936;2024-03-02T03:36:04;29.48;;;11.32;;
41829;SDS011;38614;43.472;23.936;2024-03-02T03:38:53;28.08;;;11.23;;
41829;SDS011;38614;43.472;23.936;2024-03-02T03:41:41;34.33;;;10.70;;
41829;SDS011;38614;43.472;23.936;2024-03-02T03:44:29;28.52;;;10.77;;
41829;SDS011;38614;43.472;23.936;2024-03-02T03:47:17;22.23;;;8.77;;
41829;SDS011;38614;43.472;23.936;2024-03-02T03:50:05;31.13;;;10.38;;
41829;SDS011;38614;43.472;23.936;2024-03-02T03:52:55;34.20;;;11.43;;
41829;SDS011;38614;43.472;23.936;2024-03-02T03:55:42;39.15;;;12.13;;
41829;SDS011;38614;43.472;23.936;2024-03-02T03:58:30;26.30;;;10.20;;
41829;SDS011;38614;43.472;23.936;2024-03-02T04:01:18;29.75;;;8.95;;
41829;SDS011;38614;43.472;23.936;2024-03-02T04:04:06;15.20;;;8.00;;
41829;SDS011;38614;43.472;23.936;2024-03-02T04:06:54;24.95;;;8.65;;
41829;SDS011;38614;43.472;23.936;2024-03-02T04:09:42;18.15;;;8.98;;
41829;SDS011;38614;43.472;23.936;2024-03-02T04:12:29;17.65;;;9.02;;
41829;SDS011;38614;43.472;23.936;2024-03-02T04:15:17;17.00;;;8.77;;
41829;SDS011;38614;43.472;23.936;2024-03-02T04:18:06;29.77;;;10.40;;
41829;SDS011;38614;43.472;23.936;2024-03-02T04:20:54;31.77;;;14.13;;
41829;SDS011;38614;43.472;23.936;2024-03-02T04:23:43;30.48;;;12.70;;
41829;SDS011;38614;43.472;23.936;2024-03-02T04:26:31;27.45;;;11.27;;
41829;SDS011;38614;43.472;23.936;2024-03-02T04:29:18;17.98;;;9.45;;
41829;SDS011;38614;43.472;23.936;2024-03-02T04:32:07;29.73;;;9.25;;
41829;SDS011;38614;43.472;23.936;2024-03-02T04:34:56;28.55;;;11.88;;
41829;SDS011;38614;43.472;23.936;2024-03-02T04:37:43;21.98;;;9.70;;
41829;SDS011;38614;43.472;23.936;2024-03-02T04:40:31;25.52;;;9.68;;
41829;SDS011;38614;43.472;23.936;2024-03-02T04:43:19;25.20;;;8.80;;
41829;SDS011;38614;43.472;23.936;2024-03-02T04:46:07;16.65;;;8.45;;
41829;SDS011;38614;43.472;23.936;2024-03-02T04:48:55;21.98;;;12.25;;
41829;SDS011;38614;43.472;23.936;2024-03-02T04:51:44;19.83;;;9.65;;
41829;SDS011;38614;43.472;23.936;2024-03-02T04:54:32;27.13;;;10.77;;
41829;SDS011;38614;43.472;23.936;2024-03-02T04:57:22;16.52;;;8.57;;
41829;SDS011;38614;43.472;23.936;2024-03-02T05:00:10;23.05;;;9.00;;
41829;SDS011;38614;43.472;23.936;2024-03-02T05:02:58;32.05;;;11.60;;
41829;SDS011;38614;43.472;23.936;2024-03-02T05:05:45;20.73;;;8.25;;
41829;SDS011;38614;43.472;23.936;2024-03-02T05:08:34;17.48;;;7.03;;
41829;SDS011;38614;43.472;23.936;2024-03-02T05:11:21;23.00;;;8.50;;
41829;SDS011;38614;43.472;23.936;2024-03-02T05:14:24;30.08;;;8.65;;
41829;SDS011;38614;43.472;23.936;2024-03-02T05:17:12;12.85;;;7.22;;
41829;SDS011;38614;43.472;23.936;2024-03-02T05:19:59;20.70;;;7.95;;
41829;SDS011;38614;43.472;23.936;2024-03-02T05:22:47;16.35;;;7.15;;
41829;SDS011;38614;43.472;23.936;2024-03-02T05:25:35;21.50;;;7.70;;
41829;SDS011;38614;43.472;23.936;2024-03-02T05:28:23;17.45;;;7.50;;
41829;SDS011;38614;43.472;23.936;2024-03-02T05:31:10;20.50;;;7.47;;
41829;SDS011;38614;43.472;23.936;2024-03-02T05:34:00;18.05;;;7.43;;
41829;SDS011;38614;43.472;23.936;2024-03-02T05:36:47;21.02;;;7.60;;
41829;SDS011;38614;43.472;23.936;2024-03-02T05:39:35;20.27;;;7.38;;
41829;SDS011;38614;43.472;23.936;2024-03-02T05:42:23;19.80;;;9.18;;
41829;SDS011;38614;43.472;23.936;2024-03-02T05:45:11;22.02;;;8.48;;
41829;SDS011;38614;43.472;23.936;2024-03-02T05:47:58;27.98;;;9.63;;
41829;SDS011;38614;43.472;23.936;2024-03-02T05:50:46;18.25;;;7.80;;
41829;SDS011;38614;43.472;23.936;2024-03-02T05:53:34;23.77;;;7.65;;
41829;SDS011;38614;43.472;23.936;2024-03-02T05:56:22;27.10;;;9.70;;
41829;SDS011;38614;43.472;23.936;2024-03-02T05:59:10;18.08;;;8.40;;
41829;SDS011;38614;43.472;23.936;2024-03-02T06:02:00;20.52;;;8.35;;
41829;SDS011;38614;43.472;23.936;2024-03-02T06:04:49;21.67;;;8.73;;
41829;SDS011;38614;43.472;23.936;2024-03-02T06:07:37;34.08;;;12.48;;
41829;SDS011;38614;43.472;23.936;2024-03-02T06:10:24;23.95;;;9.65;;
41829;SDS011;38614;43.472;23.936;2024-03-02T06:13:12;25.00;;;9.93;;
41829;SDS011;38614;43.472;23.936;2024-03-02T06:16:02;27.27;;;8.23;;
41829;SDS011;38614;43.472;23.936;2024-03-02T06:18:53;18.33;;;9.13;;
41829;SDS011;38614;43.472;23.936;2024-03-02T06:21:44;33.05;;;13.27;;
41829;SDS011;38614;43.472;23.936;2024-03-02T06:24:37;34.53;;;11.73;;
41829;SDS011;38614;43.472;23.936;2024-03-02T06:27:31;22.88;;;10.07;;
41829;SDS011;38614;43.472;23.936;2024-03-02T06:30:20;21.10;;;8.50;;
41829;SDS011;38614;43.472;23.936;2024-03-02T06:33:12;21.60;;;8.82;;
41829;SDS011;38614;43.472;23.936;2024-03-02T06:36:00;25.23;;;10.38;;
41829;SDS011;38614;43.472;23.936;2024-03-02T06:38:48;32.97;;;10.20;;
41829;SDS011;38614;43.472;23.936;2024-03-02T06:41:37;28.00;;;11.57;;
41829;SDS011;38614;43.472;23.936;2024-03-02T06:44:24;29.00;;;10.68;;
41829;SDS011;38614;43.472;23.936;2024-03-02T06:47:12;18.85;;;8.55;;
41829;SDS011;38614;43.472;23.936;2024-03-02T06:50:00;26.63;;;10.88;;
41829;SDS011;38614;43.472;23.936;2024-03-02T06:52:48;29.15;;;11.65;;
41829;SDS011;38614;43.472;23.936;2024-03-02T06:55:35;23.85;;;10.52;;
41829;SDS011;38614;43.472;23.936;2024-03-02T06:58:23;18.25;;;10.10;;
41829;SDS011;38614;43.472;23.936;2024-03-02T07:01:15;30.38;;;12.25;;
41829;SDS011;38614;43.472;23.936;2024-03-02T07:05:04;21.73;;;10.10;;
41829;SDS011;38614;43.472;23.936;2024-03-02T07:07:54;24.17;;;11.50;;
41829;SDS011;38614;43.472;23.936;2024-03-02T07:10:42;24.23;;;12.20;;
41829;SDS011;38614;43.472;23.936;2024-03-02T07:13:29;22.88;;;9.88;;
41829;SDS011;38614;43.472;23.936;2024-03-02T07:16:17;24.38;;;8.77;;
41829;SDS011;38614;43.472;23.936;2024-03-02T07:19:08;27.20;;;10.15;;
41829;SDS011;38614;43.472;23.936;2024-03-02T07:21:56;28.63;;;12.02;;
41829;SDS011;38614;43.472;23.936;2024-03-02T07:24:43;23.67;;;10.20;;
41829;SDS011;38614;43.472;23.936;2024-03-02T07:27:33;21.50;;;9.80;;
41829;SDS011;38614;43.472;23.936;2024-03-02T07:30:22;24.63;;;10.13;;
41829;SDS011;38614;43.472;23.936;2024-03-02T07:33:10;24.15;;;9.73;;
41829;SDS011;38614;43.472;23.936;2024-03-02T07:35:58;24.50;;;9.10;;
41829;SDS011;38614;43.472;23.936;2024-03-02T07:38:51;21.88;;;8.45;;
41829;SDS011;38614;43.472;23.936;2024-03-02T07:41:38;19.85;;;7.63;;
41829;SDS011;38614;43.472;23.936;2024-03-02T07:44:27;18.55;;;8.13;;
41829;SDS011;38614;43.472;23.936;2024-03-02T07:47:14;14.02;;;8.00;;
41829;SDS011;38614;43.472;23.936;2024-03-02T07:50:02;20.55;;;8.18;;
41829;SDS011;38614;43.472;23.936;2024-03-02T07:52:50;23.92;;;8.00;;
41829;SDS011;38614;43.472;23.936;2024-03-02T07:55:38;25.70;;;8.30;;
41829;SDS011;38614;43.472;23.936;2024-03-02T07:58:25;35.53;;;11.82;;
41829;SDS011;38614;43.472;23.936;2024-03-02T08:01:13;27.67;;;10.52;;
41829;SDS011;38614;43.472;23.936;2024-03-02T08:04:01;18.95;;;9.82;;
41829;SDS011;38614;43.472;23.936;2024-03-02T08:06:52;23.40;;;9.60;;
41829;SDS011;38614;43.472;23.936;2024-03-02T08:09:44;17.85;;;7.85;;
41829;SDS011;38614;43.472;23.936;2024-03-02T08:12:32;21.17;;;8.60;;
41829;SDS011;38614;43.472;23.936;2024-03-02T08:15:19;23.35;;;10.07;;
41829;SDS011;38614;43.472;23.936;2024-03-02T08:18:08;22.15;;;8.88;;
41829;SDS011;38614;43.472;23.936;2024-03-02T08:20:55;18.23;;;9.60;;
41829;SDS011;38614;43.472;23.936;2024-03-02T08:23:43;23.33;;;11.23;;
41829;SDS011;38614;43.472;23.936;2024-03-02T08:26:31;23.48;;;9.82;;
41829;SDS011;38614;43.472;23.936;2024-03-02T08:29:19;16.58;;;8.35;;
41829;SDS011;38614;43.472;23.936;2024-03-02T08:32:07;19.77;;;10.90;;
41829;SDS011;38614;43.472;23.936;2024-03-02T08:34:55;22.40;;;10.43;;
41829;SDS011;38614;43.472;23.936;2024-03-02T08:37:42;18.63;;;10.32;;
41829;SDS011;38614;43.472;23.936;2024-03-02T08:40:31;21.33;;;8.80;;
41829;SDS011;38614;43.472;23.936;2024-03-02T08:43:18;17.50;;;9.70;;
41829;SDS011;38614;43.472;23.936;2024-03-02T08:46:06;20.85;;;9.05;;
41829;SDS011;38614;43.472;23.936;2024-03-02T08:48:54;22.02;;;8.95;;
41829;SDS011;38614;43.472;23.936;2024-03-02T08:51:42;14.95;;;7.65;;
41829;SDS011;38614;43.472;23.936;2024-03-02T08:54:30;15.00;;;7.93;;
41829;SDS011;38614;43.472;23.936;2024-03-02T08:57:18;15.65;;;8.27;;
41829;SDS011;38614;43.472;23.936;2024-03-02T09:00:06;11.02;;;7.10;;
41829;SDS011;38614;43.472;23.936;2024-03-02T09:02:55;24.55;;;7.40;;
41829;SDS011;38614;43.472;23.936;2024-03-02T09:05:43;10.43;;;5.50;;
41829;SDS011;38614;43.472;23.936;2024-03-02T09:08:31;12.57;;;6.53;;
41829;SDS011;38614;43.472;23.936;2024-03-02T09:11:19;19.65;;;8.20;;
41829;SDS011;38614;43.472;23.936;2024-03-02T09:14:06;18.00;;;8.57;;
41829;SDS011;38614;43.472;23.936;2024-03-02T09:16:54;14.00;;;7.63;;
41829;SDS011;38614;43.472;23.936;2024-03-02T09:19:42;15.40;;;7.63;;
41829;SDS011;38614;43.472;23.936;2024-03-02T09:22:47;12.45;;;7.55;;
41829;SDS011;38614;43.472;23.936;2024-03-02T09:25:36;25.27;;;11.20;;
41829;SDS011;38614;43.472;23.936;2024-03-02T09:28:24;19.98;;;10.00;;
41829;SDS011;38614;43.472;23.936;2024-03-02T09:31:12;14.32;;;7.20;;
41829;SDS011;38614;43.472;23.936;2024-03-02T09:34:00;17.33;;;7.93;;
41829;SDS011;38614;43.472;23.936;2024-03-02T09:36:48;21.63;;;11.77;;
41829;SDS011;38614;43.472;23.936;2024-03-02T09:39:36;18.45;;;7.13;;
41829;SDS011;38614;43.472;23.936;2024-03-02T09:42:24;15.27;;;8.73;;
41829;SDS011;38614;43.472;23.936;2024-03-02T09:45:13;24.73;;;10.52;;
41829;SDS011;38614;43.472;23.936;2024-03-02T09:48:01;14.20;;;7.97;;
41829;SDS011;38614;43.472;23.936;2024-03-02T09:50:51;23.13;;;9.45;;
41829;SDS011;38614;43.472;23.936;2024-03-02T09:53:39;18.65;;;6.68;;
41829;SDS011;38614;43.472;23.936;2024-03-02T09:56:27;24.45;;;9.18;;
41829;SDS011;38614;43.472;23.936;2024-03-02T09:59:15;21.10;;;8.93;;
41829;SDS011;38614;43.472;23.936;2024-03-02T10:02:04;33.15;;;9.98;;
41829;SDS011;38614;43.472;23.936;2024-03-02T10:04:57;20.02;;;8.70;;
41829;SDS011;38614;43.472;23.936;2024-03-02T10:07:52;23.10;;;10.20;;
41829;SDS011;38614;43.472;23.936;2024-03-02T10:10:45;19.20;;;8.02;;
41829;SDS011;38614;43.472;23.936;2024-03-02T10:13:44;16.35;;;6.22;;
41829;SDS011;38614;43.472;23.936;2024-03-02T10:16:31;12.85;;;6.20;;
41829;SDS011;38614;43.472;23.936;2024-03-02T10:19:20;11.60;;;5.30;;
41829;SDS011;38614;43.472;23.936;2024-03-02T10:22:17;20.80;;;5.50;;
41829;SDS011;38614;43.472;23.936;2024-03-02T10:25:06;16.23;;;5.75;;
41829;SDS011;38614;43.472;23.936;2024-03-02T10:28:14;7.72;;;3.95;;
41829;SDS011;38614;43.472;23.936;2024-03-02T10:31:03;13.18;;;4.82;;
41829;SDS011;38614;43.472;23.936;2024-03-02T10:33:52;10.05;;;5.82;;
41829;SDS011;38614;43.472;23.936;2024-03-02T10:36:41;14.35;;;6.13;;
41829;SDS011;38614;43.472;23.936;2024-03-02T10:39:30;19.02;;;6.93;;
41829;SDS011;38614;43.472;23.936;2024-03-02T10:42:18;14.88;;;6.07;;
41829;SDS011;38614;43.472;23.936;2024-03-02T10:45:09;17.67;;;6.47;;
41829;SDS011;38614;43.472;23.936;2024-03-02T10:47:57;19.08;;;6.90;;
41829;SDS011;38614;43.472;23.936;2024-03-02T10:50:47;30.98;;;7.75;;
41829;SDS011;38614;43.472;23.936;2024-03-02T10:53:36;16.48;;;6.45;;
41829;SDS011;38614;43.472;23.936;2024-03-02T10:59:51;13.38;;;5.90;;
41829;SDS011;38614;43.472;23.936;2024-03-02T11:02:40;11.23;;;5.68;;
41829;SDS011;38614;43.472;23.936;2024-03-02T11:05:31;15.90;;;5.72;;
41829;SDS011;38614;43.472;23.936;2024-03-02T11:08:20;12.80;;;5.78;;
41829;SDS011;38614;43.472;23.936;2024-03-02T11:11:15;16.77;;;5.85;;
41829;SDS011;38614;43.472;23.936;2024-03-02T11:16:55;19.10;;;6.40;;
41829;SDS011;38614;43.472;23.936;2024-03-02T11:19:43;13.77;;;5.60;;
41829;SDS011;38614;43.472;23.936;2024-03-02T11:22:32;13.70;;;5.38;;
41829;SDS011;38614;43.472;23.936;2024-03-02T11:25:24;19.23;;;5.72;;
41829;SDS011;38614;43.472;23.936;2024-03-02T11:28:13;20.45;;;6.35;;
41829;SDS011;38614;43.472;23.936;2024-03-02T11:31:01;24.10;;;7.55;;
41829;SDS011;38614;43.472;23.936;2024-03-02T11:33:48;15.63;;;5.60;;
41829;SDS011;38614;43.472;23.936;2024-03-02T11:36:36;20.13;;;7.03;;
41829;SDS011;38614;43.472;23.936;2024-03-02T11:39:25;17.15;;;7.18;;
41829;SDS011;38614;43.472;23.936;2024-03-02T11:42:14;18.67;;;7.20;;
41829;SDS011;38614;43.472;23.936;2024-03-02T11:45:03;11.23;;;7.50;;
41829;SDS011;38614;43.472;23.936;2024-03-02T11:47:51;15.23;;;7.18;;
41829;SDS011;38614;43.472;23.936;2024-03-02T11:50:48;12.82;;;7.05;;
41829;SDS011;38614;43.472;23.936;2024-03-02T11:53:37;18.10;;;7.75;;
41829;SDS011;38614;43.472;23.936;2024-03-02T11:56:26;19.05;;;7.13;;
41829;SDS011;38614;43.472;23.936;2024-03-02T11:59:14;21.38;;;8.10;;
41829;SDS011;38614;43.472;23.936;2024-03-02T12:02:03;14.18;;;7.50;;
41829;SDS011;38614;43.472;23.936;2024-03-02T12:04:51;10.88;;;6.60;;
41829;SDS011;38614;43.472;23.936;2024-03-02T12:07:39;20.27;;;6.90;;
41829;SDS011;38614;43.472;23.936;2024-03-02T12:10:27;16.05;;;6.65;;
41829;SDS011;38614;43.472;23.936;2024-03-02T12:13:15;17.33;;;6.72;;
41829;SDS011;38614;43.472;23.936;2024-03-02T12:16:03;19.65;;;8.43;;
41829;SDS011;38614;43.472;23.936;2024-03-02T12:18:51;11.82;;;6.55;;
41829;SDS011;38614;43.472;23.936;2024-03-02T12:21:42;19.10;;;10.18;;
41829;SDS011;38614;43.472;23.936;2024-03-02T12:24:30;19.70;;;7.90;;
41829;SDS011;38614;43.472;23.936;2024-03-02T12:27:18;17.85;;;10.65;;
41829;SDS011;38614;43.472;23.936;2024-03-02T12:30:08;16.13;;;7.88;;
41829;SDS011;38614;43.472;23.936;2024-03-02T12:32:58;15.23;;;5.57;;
41829;SDS011;38614;43.472;23.936;2024-03-02T12:35:45;11.27;;;5.18;;
41829;SDS011;38614;43.472;23.936;2024-03-02T12:38:33;20.92;;;5.57;;
41829;SDS011;38614;43.472;23.936;2024-03-02T12:41:21;13.25;;;5.43;;
41829;SDS011;38614;43.472;23.936;2024-03-02T12:44:09;19.60;;;7.45;;
41829;SDS011;38614;43.472;23.936;2024-03-02T12:46:57;19.38;;;9.85;;
41829;SDS011;38614;43.472;23.936;2024-03-02T12:49:49;23.58;;;9.90;;
41829;SDS011;38614;43.472;23.936;2024-03-02T12:52:38;12.15;;;7.63;;
41829;SDS011;38614;43.472;23.936;2024-03-02T12:55:28;75.93;;;31.27;;
41829;SDS011;38614;43.472;23.936;2024-03-02T12:58:18;269.58;;;81.10;;
41829;SDS011;38614;43.472;23.936;2024-03-02T13:01:09;157.90;;;52.50;;
41829;SDS011;38614;43.472;23.936;2024-03-02T13:03:58;219.00;;;74.43;;
41829;SDS011;38614;43.472;23.936;2024-03-02T13:06:47;39.17;;;14.07;;
41829;SDS011;38614;43.472;23.936;2024-03-02T13:09:39;14.50;;;6.72;;
41829;SDS011;38614;43.472;23.936;2024-03-02T13:12:30;26.00;;;10.73;;
41829;SDS011;38614;43.472;23.936;2024-03-02T13:15:26;19.20;;;8.50;;
41829;SDS011;38614;43.472;23.936;2024-03-02T13:18:14;26.35;;;13.77;;
41829;SDS011;38614;43.472;23.936;2024-03-02T13:21:02;34.13;;;12.70;;
41829;SDS011;38614;43.472;23.936;2024-03-02T13:23:50;25.35;;;11.93;;
41829;SDS011;38614;43.472;23.936;2024-03-02T13:26:40;17.65;;;8.18;;
41829;SDS011;38614;43.472;23.936;2024-03-02T13:29:29;25.25;;;12.20;;
41829;SDS011;38614;43.472;23.936;2024-03-02T13:32:16;34.10;;;15.13;;
41829;SDS011;38614;43.472;23.936;2024-03-02T13:35:05;21.38;;;10.35;;
41829;SDS011;38614;43.472;23.936;2024-03-02T13:37:53;28.85;;;12.73;;
41829;SDS011;38614;43.472;23.936;2024-03-02T13:40:41;27.55;;;12.40;;
41829;SDS011;38614;43.472;23.936;2024-03-02T13:43:28;22.35;;;9.50;;
41829;SDS011;38614;43.472;23.936;2024-03-02T13:46:19;15.68;;;9.00;;
41829;SDS011;38614;43.472;23.936;2024-03-02T13:49:10;19.20;;;9.40;;
41829;SDS011;38614;43.472;23.936;2024-03-02T13:52:05;16.77;;;8.18;;
41829;SDS011;38614;43.472;23.936;2024-03-02T13:54:57;48.47;;;14.35;;
41829;SDS011;38614;43.472;23.936;2024-03-02T13:57:46;106.78;;;32.17;;
41829;SDS011;38614;43.472;23.936;2024-03-02T14:00:34;48.60;;;20.98;;
41829;SDS011;38614;43.472;23.936;2024-03-02T14:03:21;21.20;;;9.27;;
41829;SDS011;38614;43.472;23.936;2024-03-02T14:06:17;18.02;;;9.30;;
41829;SDS011;38614;43.472;23.936;2024-03-02T14:09:06;36.85;;;15.77;;
41829;SDS011;38614;43.472;23.936;2024-03-02T14:11:54;23.60;;;11.50;;
41829;SDS011;38614;43.472;23.936;2024-03-02T14:14:42;36.25;;;15.05;;
41829;SDS011;38614;43.472;23.936;2024-03-02T14:17:30;35.38;;;14.98;;
41829;SDS011;38614;43.472;23.936;2024-03-02T14:20:19;31.65;;;14.13;;
41829;SDS011;38614;43.472;23.936;2024-03-02T14:23:24;49.40;;;22.90;;
41829;SDS011;38614;43.472;23.936;2024-03-02T14:26:27;74.07;;;29.52;;
41829;SDS011;38614;43.472;23.936;2024-03-02T14:29:17;65.38;;;23.08;;
41829;SDS011;38614;43.472;23.936;2024-03-02T14:32:21;65.05;;;26.60;;
41829;SDS011;38614;43.472;23.936;2024-03-02T14:35:12;101.15;;;41.80;;
41829;SDS011;38614;43.472;23.936;2024-03-02T14:38:00;60.67;;;24.52;;
41829;SDS011;38614;43.472;23.936;2024-03-02T14:40:48;65.53;;;23.90;;
41829;SDS011;38614;43.472;23.936;2024-03-02T14:43:37;83.35;;;26.67;;
41829;SDS011;38614;43.472;23.936;2024-03-02T14:46:26;34.75;;;15.27;;
41829;SDS011;38614;43.472;23.936;2024-03-02T14:49:14;70.47;;;22.67;;
41829;SDS011;38614;43.472;23.936;2024-03-02T14:52:02;63.15;;;22.13;;
41829;SDS011;38614;43.472;23.936;2024-03-02T14:54:50;122.15;;;40.53;;
41829;SDS011;38614;43.472;23.936;2024-03-02T14:57:41;84.18;;;30.77;;
41829;SDS011;38614;43.472;23.936;2024-03-02T15:00:36;70.07;;;26.75;;
41829;SDS011;38614;43.472;23.936;2024-03-02T15:03:25;76.57;;;27.15;;
41829;SDS011;38614;43.472;23.936;2024-03-02T15:06:14;73.72;;;28.65;;
41829;SDS011;38614;43.472;23.936;2024-03-02T15:09:02;85.45;;;28.25;;
41829;SDS011;38614;43.472;23.936;2024-03-02T15:11:52;42.90;;;19.58;;
41829;SDS011;38614;43.472;23.936;2024-03-02T15:14:40;32.13;;;14.40;;
41829;SDS011;38614;43.472;23.936;2024-03-02T15:17:34;28.52;;;12.95;;
41829;SDS011;38614;43.472;23.936;2024-03-02T15:20:24;24.63;;;13.27;;
41829;SDS011;38614;43.472;23.936;2024-03-02T15:23:13;28.92;;;14.93;;
41829;SDS011;38614;43.472;23.936;2024-03-02T15:26:01;33.28;;;18.42;;
41829;SDS011;38614;43.472;23.936;2024-03-02T15:28:49;44.20;;;22.08;;
41829;SDS011;38614;43.472;23.936;2024-03-02T15:31:36;27.83;;;12.57;;
41829;SDS011;38614;43.472;23.936;2024-03-02T15:34:24;31.75;;;13.98;;
41829;SDS011;38614;43.472;23.936;2024-03-02T15:37:12;26.30;;;12.32;;
41829;SDS011;38614;43.472;23.936;2024-03-02T15:40:00;24.90;;;12.35;;
41829;SDS011;38614;43.472;23.936;2024-03-02T15:42:55;35.60;;;16.15;;
41829;SDS011;38614;43.472;23.936;2024-03-02T15:45:43;41.63;;;16.98;;
41829;SDS011;38614;43.472;23.936;2024-03-02T15:48:31;35.63;;;15.77;;
41829;SDS011;38614;43.472;23.936;2024-03-02T15:51:20;46.10;;;20.33;;
41829;SDS011;38614;43.472;23.936;2024-03-02T15:54:08;37.03;;;15.95;;
41829;SDS011;38614;43.472;23.936;2024-03-02T15:56:55;45.63;;;16.55;;
41829;SDS011;38614;43.472;23.936;2024-03-02T15:59:43;35.38;;;14.85;;
41829;SDS011;38614;43.472;23.936;2024-03-02T16:02:32;28.55;;;13.95;;
41829;SDS011;38614;43.472;23.936;2024-03-02T16:05:20;25.15;;;12.70;;
41829;SDS011;38614;43.472;23.936;2024-03-02T16:08:08;28.48;;;13.00;;
41829;SDS011;38614;43.472;23.936;2024-03-02T16:10:56;27.38;;;14.63;;
41829;SDS011;38614;43.472;23.936;2024-03-02T16:13:46;30.00;;;14.98;;
41829;SDS011;38614;43.472;23.936;2024-03-02T16:16:36;39.45;;;17.70;;
41829;SDS011;38614;43.472;23.936;2024-03-02T16:19:25;27.02;;;14.95;;
41829;SDS011;38614;43.472;23.936;2024-03-02T16:22:19;38.58;;;16.63;;
41829;SDS011;38614;43.472;23.936;2024-03-02T16:25:08;69.50;;;24.55;;
41829;SDS011;38614;43.472;23.936;2024-03-02T16:27:56;59.63;;;26.45;;
41829;SDS011;38614;43.472;23.936;2024-03-02T16:30:45;60.05;;;22.42;;